createdAt,value
2017-11-10T00:01:10.323Z,27.40
2017-11-10T00:03:37.793Z,26.17
2017-11-10T00:06:05.252Z,26.92
2017-11-10T00:08:32.718Z,25.85
2017-11-10T00:11:00.175Z,24.87
2017-11-10T00:13:28.426Z,25.77
2017-11-10T00:15:55.899Z,26.75
2017-11-10T00:18:24.178Z,26.27
2017-11-10T00:20:51.638Z,27.05
2017-11-10T00:23:19.097Z,25.80
2017-11-10T00:25:47.362Z,24.33
2017-11-10T00:28:14.822Z,26.98
2017-11-10T00:30:42.378Z,23.95
2017-11-10T00:33:09.939Z,25.25
2017-11-10T00:35:37.498Z,26.37
2017-11-10T00:38:04.950Z,23.50
2017-11-10T00:40:32.511Z,23.25
2017-11-10T00:43:00.070Z,25.27
2017-11-10T00:45:27.623Z,23.62
2017-11-10T00:47:55.092Z,25.77
2017-11-10T00:50:22.561Z,23.45
2017-11-10T00:52:50.799Z,23.27
2017-11-10T00:55:18.275Z,27.52
2017-11-10T00:57:45.734Z,24.58
2017-11-10T01:00:13.297Z,25.67
2017-11-10T01:02:41.522Z,24.70
2017-11-10T01:05:08.985Z,24.70
2017-11-10T01:07:36.475Z,26.55
2017-11-10T01:10:04.040Z,28.10
2017-11-10T01:12:31.494Z,25.98
2017-11-10T01:14:58.958Z,26.23
2017-11-10T01:17:26.437Z,26.87
2017-11-10T01:19:54.659Z,25.05
2017-11-10T01:22:22.130Z,26.10
2017-11-10T01:24:49.599Z,25.20
2017-11-10T01:27:17.061Z,26.45
2017-11-10T01:29:44.612Z,26.98
2017-11-10T01:32:12.179Z,24.67
2017-11-10T01:34:39.721Z,25.12
2017-11-10T01:37:07.292Z,26.70
2017-11-10T01:39:34.850Z,25.80
2017-11-10T01:42:02.406Z,25.45
2017-11-10T01:44:29.862Z,25.48
2017-11-10T01:46:57.417Z,24.10
2017-11-10T01:49:27.393Z,26.40
2017-11-10T01:51:54.870Z,25.12
2017-11-10T01:54:22.330Z,22.92
2017-11-10T01:56:49.798Z,24.45
2017-11-10T01:59:17.258Z,26.52
2017-11-10T02:01:44.818Z,24.80
2017-11-10T02:04:12.374Z,25.50
2017-11-10T02:06:39.845Z,23.17
2017-11-10T02:09:07.302Z,24.10
2017-11-10T02:11:34.848Z,24.50
2017-11-10T02:14:02.405Z,23.48
2017-11-10T02:16:29.866Z,24.23
2017-11-10T02:18:57.331Z,21.90
2017-11-10T02:21:27.727Z,22.62
2017-11-10T02:23:55.215Z,23.35
2017-11-10T02:26:22.678Z,22.98
2017-11-10T02:28:50.937Z,23.83
2017-11-10T02:31:18.400Z,22.85
2017-11-10T02:33:46.731Z,20.17
2017-11-10T02:36:14.242Z,21.70
2017-11-10T02:38:41.802Z,20.67
2017-11-10T02:41:09.359Z,21.25
2017-11-10T02:43:37.007Z,20.88
2017-11-10T02:46:04.627Z,20.27
2017-11-10T02:48:32.090Z,20.62
2017-11-10T02:50:59.586Z,20.80
2017-11-10T02:53:27.039Z,19.27
2017-11-10T02:55:55.405Z,19.60
2017-11-10T02:58:22.869Z,18.48
2017-11-10T03:00:50.338Z,20.08
2017-11-10T03:03:17.889Z,19.52
2017-11-10T03:05:46.881Z,19.92
2017-11-10T03:08:14.497Z,19.45
2017-11-10T03:10:41.998Z,19.25
2017-11-10T03:13:09.453Z,18.02
2017-11-10T03:15:36.914Z,19.52
2017-11-10T03:18:04.463Z,18.75
2017-11-10T03:20:32.031Z,19.05
2017-11-10T03:22:59.594Z,18.98
2017-11-10T03:25:27.046Z,17.95
2017-11-10T03:27:54.593Z,19.58
2017-11-10T03:30:22.152Z,19.37
2017-11-10T03:32:49.612Z,18.80
2017-11-10T03:35:17.086Z,19.95
2017-11-10T03:37:44.540Z,19.40
2017-11-10T03:40:12.086Z,18.30
2017-11-10T03:42:39.645Z,17.27
2017-11-10T03:45:07.097Z,18.02
2017-11-10T03:47:34.565Z,18.02
2017-11-10T03:50:02.031Z,19.42
2017-11-10T03:52:29.486Z,19.48
2017-11-10T03:54:57.034Z,16.80
2017-11-10T03:57:24.501Z,17.87
2017-11-10T03:59:51.955Z,17.10
2017-11-10T04:02:20.198Z,15.73
2017-11-10T04:04:47.680Z,17.58
2017-11-10T04:07:15.238Z,17.92
2017-11-10T04:09:42.686Z,17.00
2017-11-10T04:12:10.254Z,16.55
2017-11-10T04:14:37.709Z,17.60
2017-11-10T04:17:05.170Z,16.58
2017-11-10T04:19:32.722Z,16.42
2017-11-10T04:22:00.274Z,17.00
2017-11-10T04:24:27.745Z,17.30
2017-11-10T04:26:55.294Z,16.08
2017-11-10T04:29:22.755Z,17.58
2017-11-10T04:31:50.221Z,18.92
2017-11-10T04:34:17.772Z,17.90
2017-11-10T04:36:45.225Z,16.85
2017-11-10T04:39:12.781Z,17.05
2017-11-10T04:41:40.234Z,17.30
2017-11-10T04:44:07.710Z,17.52
2017-11-10T04:46:35.164Z,17.25
2017-11-10T04:49:02.633Z,19.23
2017-11-10T04:51:30.881Z,16.37
2017-11-10T04:53:58.342Z,16.08
2017-11-10T04:56:25.802Z,18.83
2017-11-10T04:58:53.258Z,19.00
2017-11-10T05:01:20.709Z,18.35
2017-11-10T05:03:48.261Z,17.70
2017-11-10T05:06:15.721Z,18.75
2017-11-10T05:08:43.204Z,18.05
2017-11-10T05:11:11.434Z,21.37
2017-11-10T05:13:38.913Z,19.42
2017-11-10T05:16:06.431Z,18.95
2017-11-10T05:18:33.933Z,19.70
2017-11-10T05:21:01.390Z,17.70
2017-11-10T05:23:28.851Z,18.75
2017-11-10T05:25:56.405Z,18.95
2017-11-10T05:28:23.872Z,19.80
2017-11-10T05:30:52.113Z,19.12
2017-11-10T05:33:19.586Z,19.85
2017-11-10T05:35:47.044Z,19.75
2017-11-10T05:38:14.505Z,20.48
2017-11-10T05:40:41.958Z,18.23
2017-11-10T05:43:09.414Z,16.58
2017-11-10T05:45:36.874Z,18.70
2017-11-10T05:48:04.346Z,18.10
2017-11-10T05:50:32.585Z,19.27
2017-11-10T05:53:00.041Z,19.42
2017-11-10T05:55:27.504Z,17.62
2017-11-10T05:57:54.957Z,20.45
2017-11-10T06:00:22.420Z,19.95
2017-11-10T06:02:49.887Z,18.75
2017-11-10T06:05:17.362Z,18.35
2017-11-10T06:07:45.623Z,20.52
2017-11-10T06:10:13.078Z,19.33
2017-11-10T06:12:40.537Z,18.55
2017-11-10T06:15:08.789Z,18.10
2017-11-10T06:17:36.246Z,17.02
2017-11-10T06:20:03.712Z,17.15
2017-11-10T06:22:31.165Z,17.50
2017-11-10T06:24:58.746Z,18.05
2017-11-10T06:27:26.214Z,17.50
2017-11-10T06:29:54.474Z,17.30
2017-11-10T06:32:21.945Z,16.83
2017-11-10T06:34:50.209Z,18.10
2017-11-10T06:37:17.678Z,18.17
2017-11-10T06:39:45.230Z,18.12
2017-11-10T06:42:12.696Z,19.40
2017-11-10T06:44:40.922Z,18.20
2017-11-10T06:47:08.386Z,19.48
2017-11-10T06:49:35.855Z,16.95
2017-11-10T06:52:03.427Z,16.70
2017-11-10T06:54:30.978Z,17.67
2017-11-10T06:56:58.538Z,18.15
2017-11-10T06:59:26.004Z,16.90
2017-11-10T07:01:54.999Z,16.85
2017-11-10T07:04:22.459Z,17.87
2017-11-10T07:06:50.698Z,18.98
2017-11-10T07:09:18.162Z,17.58
2017-11-10T07:11:45.622Z,16.90
2017-11-10T07:14:13.085Z,18.05
2017-11-10T07:16:40.644Z,16.98
2017-11-10T07:19:08.101Z,18.25
2017-11-10T07:21:35.657Z,16.25
2017-11-10T07:24:03.159Z,16.90
2017-11-10T07:26:30.614Z,16.92
2017-11-10T07:28:58.073Z,17.87
2017-11-10T07:31:25.536Z,18.45
2017-11-10T07:33:52.990Z,19.87
2017-11-10T07:36:20.454Z,18.92
2017-11-10T07:38:47.958Z,17.12
2017-11-10T07:41:15.425Z,17.73
2017-11-10T07:43:43.011Z,18.35
2017-11-10T07:46:11.249Z,17.58
2017-11-10T07:48:38.870Z,15.50
2017-11-10T07:51:06.326Z,15.15
2017-11-10T07:53:33.790Z,16.73
2017-11-10T07:56:01.243Z,18.00
2017-11-10T07:58:28.710Z,18.60
2017-11-10T08:00:56.190Z,17.10
2017-11-10T08:03:23.649Z,15.52
2017-11-10T08:05:51.115Z,16.15
2017-11-10T08:08:18.576Z,16.12
2017-11-10T08:10:46.814Z,17.55
2017-11-10T08:13:14.290Z,16.12
2017-11-10T08:15:41.756Z,17.45
2017-11-10T08:18:09.233Z,15.50
2017-11-10T08:20:37.457Z,16.85
2017-11-10T08:23:04.930Z,17.67
2017-11-10T08:25:32.403Z,17.25
2017-11-10T08:27:59.875Z,14.48
2017-11-10T08:30:28.113Z,16.20
2017-11-10T08:32:55.582Z,15.63
2017-11-10T08:35:23.040Z,15.48
2017-11-10T08:37:50.517Z,15.25
2017-11-10T08:40:18.745Z,16.10
2017-11-10T08:42:46.202Z,15.63
2017-11-10T08:45:13.663Z,15.48
2017-11-10T08:47:41.130Z,15.02
2017-11-10T08:50:08.589Z,15.13
2017-11-10T08:52:36.063Z,15.95
2017-11-10T08:55:03.533Z,14.73
2017-11-10T08:57:32.102Z,14.93
2017-11-10T08:59:59.573Z,14.82
2017-11-10T09:02:27.870Z,16.45
2017-11-10T09:04:55.349Z,14.48
2017-11-10T09:07:22.848Z,15.05
2017-11-10T09:09:50.311Z,15.98
2017-11-10T09:12:17.768Z,14.80
2017-11-10T09:14:45.431Z,15.52
2017-11-10T09:17:13.678Z,15.88
2017-11-10T09:19:41.145Z,17.37
2017-11-10T09:22:08.610Z,15.02
2017-11-10T09:24:36.066Z,14.25
2017-11-10T09:27:03.937Z,14.25
2017-11-10T09:29:34.842Z,13.62
2017-11-10T09:35:12.370Z,14.63
2017-11-10T09:37:45.481Z,14.87
2017-11-10T09:40:17.802Z,13.35
2017-11-10T09:42:56.078Z,13.15
2017-11-10T09:45:29.210Z,14.73
2017-11-10T09:48:02.400Z,12.95
2017-11-10T09:50:35.628Z,12.63
2017-11-10T09:56:21.452Z,12.30
2017-11-10T09:58:51.205Z,12.63
2017-11-10T10:01:34.470Z,13.45
2017-11-10T10:04:07.604Z,12.35
2017-11-10T10:06:38.646Z,12.63
2017-11-10T10:09:06.918Z,12.15
2017-11-10T10:11:35.158Z,12.45
2017-11-10T10:14:03.385Z,11.15
2017-11-10T10:16:36.458Z,11.52
2017-11-10T10:19:13.803Z,13.13
2017-11-10T10:24:43.714Z,12.82
2017-11-10T10:27:11.183Z,11.63
2017-11-10T10:29:38.640Z,12.20
2017-11-10T10:32:06.978Z,11.75
2017-11-10T10:34:34.431Z,12.75
2017-11-10T10:37:01.902Z,11.38
2017-11-10T10:39:29.371Z,11.75
2017-11-10T10:41:56.839Z,10.77
2017-11-10T10:44:24.296Z,10.82
2017-11-10T10:46:51.758Z,12.65
2017-11-10T10:49:19.355Z,10.80
2017-11-10T10:51:46.811Z,9.82
2017-11-10T10:54:14.279Z,10.00
2017-11-10T10:56:41.746Z,10.98
2017-11-10T10:59:09.243Z,11.25
2017-11-10T11:01:36.811Z,10.90
2017-11-10T11:04:04.375Z,11.02
2017-11-10T11:06:31.831Z,9.73
2017-11-10T11:08:59.300Z,11.30
2017-11-10T11:11:27.517Z,10.20
2017-11-10T11:13:54.987Z,10.35
2017-11-10T11:16:22.450Z,11.30
2017-11-10T11:18:50.017Z,9.93
2017-11-10T11:21:17.474Z,10.65
2017-11-10T11:23:44.929Z,10.15
2017-11-10T11:26:12.395Z,11.02
2017-11-10T11:28:39.870Z,10.75
2017-11-10T11:31:08.093Z,9.48
2017-11-10T11:33:35.582Z,11.15
2017-11-10T11:36:03.133Z,11.10
2017-11-10T11:38:30.656Z,9.48
2017-11-10T11:40:58.124Z,9.85
2017-11-10T11:43:25.581Z,8.95
2017-11-10T11:45:53.582Z,10.07
2017-11-10T11:48:21.044Z,10.57
2017-11-10T11:50:48.591Z,9.90
2017-11-10T11:53:16.146Z,9.27
2017-11-10T11:55:43.627Z,8.65
2017-11-10T11:58:11.852Z,8.88
2017-11-10T12:00:39.320Z,9.02
2017-11-10T12:03:06.778Z,9.20
2017-11-10T12:05:34.230Z,8.65
2017-11-10T12:08:01.694Z,9.48
2017-11-10T12:10:29.158Z,9.32
2017-11-10T12:12:56.671Z,9.20
2017-11-10T12:15:24.171Z,8.60
2017-11-10T12:17:51.632Z,8.43
2017-11-10T12:20:19.116Z,8.93
2017-11-10T12:22:47.473Z,8.90
2017-11-10T12:25:15.031Z,8.40
2017-11-10T12:27:42.551Z,9.38
2017-11-10T12:30:10.053Z,8.77
2017-11-10T12:32:37.514Z,8.05
2017-11-10T12:35:04.978Z,9.35
2017-11-10T12:37:32.434Z,8.90
2017-11-10T12:39:59.981Z,9.38
2017-11-10T12:42:27.437Z,9.65
2017-11-10T12:44:55.009Z,10.07
2017-11-10T12:47:22.554Z,9.80
2017-11-10T12:49:50.014Z,9.13
2017-11-10T12:52:17.569Z,9.35
2017-11-10T12:54:45.130Z,9.30
2017-11-10T12:57:12.578Z,9.55
2017-11-10T12:59:40.139Z,10.00
2017-11-10T13:02:07.601Z,9.90
2017-11-10T13:04:35.157Z,9.68
2017-11-10T13:07:02.605Z,9.93
2017-11-10T13:09:30.075Z,10.48
2017-11-10T13:11:57.632Z,10.10
2017-11-10T13:14:25.090Z,9.23
2017-11-10T13:16:53.362Z,9.40
2017-11-10T13:19:20.827Z,10.60
2017-11-10T13:21:48.283Z,9.35
2017-11-10T13:24:15.738Z,8.40
2017-11-10T13:26:43.189Z,9.30
2017-11-10T13:29:10.654Z,8.30
2017-11-10T13:31:38.904Z,8.85
2017-11-10T13:34:06.363Z,7.32
2017-11-10T13:36:33.925Z,7.68
2017-11-10T13:39:01.382Z,8.30
2017-11-10T13:41:28.850Z,8.13
2017-11-10T13:43:56.309Z,6.55
2017-11-10T13:46:23.862Z,7.78
2017-11-10T13:48:51.424Z,6.68
2017-11-10T13:51:18.885Z,7.25
2017-11-10T13:53:46.342Z,7.55
2017-11-10T13:56:13.801Z,6.80
2017-11-10T13:58:41.345Z,6.43
2017-11-10T14:01:08.801Z,6.80
2017-11-10T14:03:36.262Z,6.57
2017-11-10T14:06:03.728Z,7.10
2017-11-10T14:08:31.185Z,7.20
2017-11-10T14:10:58.646Z,6.30
2017-11-10T14:13:26.110Z,6.93
2017-11-10T14:15:54.362Z,6.53
2017-11-10T14:18:21.819Z,6.37
2017-11-10T14:20:49.274Z,6.18
2017-11-10T14:23:16.733Z,6.40
2017-11-10T14:25:44.186Z,6.15
2017-11-10T14:28:11.745Z,6.80
2017-11-10T14:30:39.202Z,6.15
2017-11-10T14:33:06.664Z,6.43
2017-11-10T14:35:34.117Z,6.72
2017-11-10T14:38:01.598Z,5.72
2017-11-10T14:40:29.822Z,5.55
2017-11-10T14:42:57.306Z,5.60
2017-11-10T14:45:24.756Z,6.35
2017-11-10T14:47:52.211Z,5.45
2017-11-10T14:50:19.669Z,6.20
2017-11-10T14:52:47.123Z,5.80
2017-11-10T14:55:14.580Z,5.97
2017-11-10T14:57:42.151Z,5.30
2017-11-10T15:00:09.605Z,6.00
2017-11-10T15:02:37.850Z,6.20
2017-11-10T15:05:05.446Z,5.57
2017-11-10T15:07:32.926Z,5.43
2017-11-10T15:10:01.141Z,6.45
2017-11-10T15:12:28.609Z,5.28
2017-11-10T15:14:56.065Z,5.10
2017-11-10T15:17:23.536Z,5.43
2017-11-10T15:19:50.987Z,6.03
2017-11-10T15:22:18.451Z,5.80
2017-11-10T15:24:45.906Z,6.32
2017-11-10T15:27:13.361Z,6.62
2017-11-10T15:29:40.820Z,5.10
2017-11-10T15:32:08.270Z,5.40
2017-11-10T15:34:35.837Z,5.72
2017-11-10T15:37:03.302Z,5.95
2017-11-10T15:39:30.758Z,5.75
2017-11-10T15:41:58.218Z,7.20
2017-11-10T15:44:25.678Z,5.43
2017-11-10T15:46:53.226Z,5.90
2017-11-10T15:49:20.678Z,5.10
2017-11-10T15:51:48.237Z,5.40
2017-11-10T15:54:15.798Z,5.90
2017-11-10T15:56:43.354Z,5.22
2017-11-10T15:59:10.806Z,4.78
2017-11-10T16:01:38.362Z,4.90
2017-11-10T16:04:05.922Z,4.78
2017-11-10T16:06:33.381Z,4.50
2017-11-10T16:09:00.948Z,5.28
2017-11-10T16:11:28.402Z,5.00
2017-11-10T16:13:55.859Z,5.20
2017-11-10T16:16:23.338Z,4.07
2017-11-10T16:18:51.557Z,3.83
2017-11-10T16:21:19.018Z,4.35
2017-11-10T16:23:46.478Z,4.53
2017-11-10T16:26:13.929Z,4.50
2017-11-10T16:28:41.406Z,4.32
2017-11-10T16:31:08.874Z,3.87
2017-11-10T16:33:36.331Z,4.40
2017-11-10T16:36:03.786Z,4.12
2017-11-10T16:38:31.236Z,3.85
2017-11-10T16:40:58.799Z,5.18
2017-11-10T16:43:26.365Z,4.18
2017-11-10T16:45:53.916Z,4.37
2017-11-10T16:48:21.371Z,5.70
2017-11-10T16:50:48.825Z,4.65
2017-11-10T16:53:16.283Z,4.90
2017-11-10T16:55:43.738Z,4.82
2017-11-10T16:58:11.209Z,4.70
2017-11-10T17:00:38.652Z,4.15
2017-11-10T17:03:06.102Z,5.40
2017-11-10T17:05:33.575Z,5.57
2017-11-10T17:08:01.029Z,4.87
2017-11-10T17:10:28.487Z,4.60
2017-11-10T17:12:55.947Z,4.50
2017-11-10T17:15:24.210Z,3.60
2017-11-10T17:17:51.765Z,4.32
2017-11-10T17:20:19.213Z,4.60
2017-11-10T17:22:46.673Z,4.37
2017-11-10T17:25:14.126Z,5.75
2017-11-10T17:27:41.582Z,6.10
2017-11-10T17:30:09.054Z,4.82
2017-11-10T17:32:36.616Z,3.62
2017-11-10T17:35:04.161Z,4.68
2017-11-10T17:37:31.740Z,3.60
2017-11-10T17:39:59.286Z,4.00
2017-11-10T17:42:26.747Z,2.67
2017-11-10T17:44:54.205Z,3.15
2017-11-10T17:47:21.657Z,3.00
2017-11-10T17:49:49.105Z,2.42
2017-11-10T17:52:16.556Z,1.90
2017-11-10T17:54:44.061Z,2.15
2017-11-10T17:57:12.277Z,2.10
2017-11-10T17:59:39.739Z,1.80
2017-11-10T18:02:07.200Z,2.58
2017-11-10T18:04:34.657Z,1.60
2017-11-10T18:07:02.122Z,1.90
2017-11-10T18:09:29.577Z,2.20
2017-11-10T18:11:57.025Z,1.65
2017-11-10T18:14:24.486Z,1.75
2017-11-10T18:16:52.018Z,1.30
2017-11-10T18:19:19.478Z,1.87
2017-11-10T18:21:46.975Z,1.62
2017-11-10T18:24:14.433Z,1.80
2017-11-10T18:26:41.889Z,2.00
2017-11-10T18:29:09.337Z,2.33
2017-11-10T18:31:36.806Z,1.60
2017-11-10T18:34:04.363Z,2.55
2017-11-10T18:36:31.875Z,1.73
2017-11-10T18:38:59.378Z,1.70
2017-11-10T18:41:27.641Z,2.35
2017-11-10T18:43:55.108Z,2.10
2017-11-10T18:46:22.668Z,1.85
2017-11-10T18:48:55.888Z,1.40
2017-11-10T18:51:24.128Z,1.67
2017-11-10T18:53:51.576Z,2.62
2017-11-10T18:56:19.029Z,2.45
2017-11-10T18:58:46.492Z,1.23
2017-11-10T19:01:14.058Z,1.37
2017-11-10T19:03:41.537Z,1.37
2017-11-10T19:06:09.790Z,2.03
2017-11-10T19:08:37.245Z,1.60
2017-11-10T19:11:04.706Z,1.50
2017-11-10T19:13:32.161Z,1.50
2017-11-10T19:15:59.617Z,1.35
2017-11-10T19:18:27.086Z,2.25
2017-11-10T19:20:54.534Z,1.40
2017-11-10T19:23:23.505Z,2.00
2017-11-10T19:25:50.959Z,2.03
2017-11-10T19:28:18.495Z,2.03
2017-11-10T19:30:45.950Z,2.72
2017-11-10T19:33:13.453Z,1.77
2017-11-10T19:35:41.002Z,1.45
2017-11-10T19:38:08.569Z,1.50
2017-11-10T19:40:36.121Z,1.92
2017-11-10T19:43:03.685Z,1.90
2017-11-10T19:45:31.134Z,1.58
2017-11-10T19:47:58.699Z,1.80
2017-11-10T19:50:26.151Z,1.50
2017-11-10T19:52:53.777Z,1.40
2017-11-10T19:55:21.269Z,1.77
2017-11-10T19:57:48.738Z,1.73
2017-11-10T20:00:16.193Z,1.95
2017-11-10T20:02:43.645Z,1.50
2017-11-10T20:05:11.106Z,1.60
2017-11-10T20:07:38.551Z,1.90
2017-11-10T20:10:06.117Z,2.30
2017-11-10T20:12:33.565Z,2.10
2017-11-10T20:15:01.029Z,1.80
2017-11-10T20:17:28.486Z,1.73
2017-11-10T20:19:56.004Z,1.83
2017-11-10T20:22:23.520Z,1.62
2017-11-10T20:24:51.783Z,1.37
2017-11-10T20:27:19.337Z,1.60
2017-11-10T20:29:46.789Z,1.67
2017-11-10T20:32:15.757Z,3.22
2017-11-10T20:34:43.240Z,1.58
2017-11-10T20:37:10.692Z,1.60
2017-11-10T20:39:38.151Z,1.25
2017-11-10T20:42:05.775Z,1.48
2017-11-10T20:44:33.221Z,2.40
2017-11-10T20:47:00.730Z,1.50
2017-11-10T20:49:28.177Z,1.60
2017-11-10T20:51:55.633Z,2.05
2017-11-10T20:54:23.099Z,2.30
2017-11-10T20:56:50.554Z,2.22
2017-11-10T20:59:21.034Z,1.62
2017-11-10T21:01:48.521Z,1.65
2017-11-10T21:04:18.317Z,1.50
2017-11-10T21:06:45.804Z,2.30
2017-11-10T21:09:16.170Z,2.17
2017-11-10T21:11:44.100Z,1.80
2017-11-10T21:14:11.560Z,2.03
2017-11-10T21:16:39.021Z,2.78
2017-11-10T21:19:06.481Z,2.00
2017-11-10T21:21:33.946Z,1.90
2017-11-10T21:24:02.177Z,2.30
2017-11-10T21:26:29.642Z,1.45
2017-11-10T21:28:57.122Z,1.90
2017-11-10T21:31:24.575Z,2.62
2017-11-10T21:33:52.033Z,3.12
2017-11-10T21:36:19.486Z,2.15
2017-11-10T21:38:48.485Z,2.97
2017-11-10T21:41:15.938Z,2.67
2017-11-10T21:43:44.182Z,3.10
2017-11-10T21:46:11.634Z,2.65
2017-11-10T21:48:39.081Z,2.95
2017-11-10T21:51:06.577Z,2.10
2017-11-10T21:53:34.030Z,2.10
2017-11-10T21:56:01.493Z,3.08
2017-11-10T21:58:28.950Z,2.42
2017-11-10T22:00:56.514Z,2.42
2017-11-10T22:03:24.656Z,2.85
2017-11-10T22:05:52.119Z,2.10
2017-11-10T22:08:19.566Z,1.95
2017-11-10T22:10:47.050Z,1.42
2017-11-10T22:13:15.422Z,2.22
2017-11-10T22:15:42.883Z,1.62
2017-11-10T22:18:10.330Z,2.17
2017-11-10T22:20:37.799Z,2.20
2017-11-10T22:23:05.243Z,1.45
2017-11-10T22:25:32.701Z,1.90
2017-11-10T22:28:00.157Z,1.70
2017-11-10T22:30:27.610Z,1.60
2017-11-10T22:32:55.079Z,1.20
2017-11-10T22:35:22.534Z,1.33
2017-11-10T22:37:50.085Z,1.75
2017-11-10T22:40:17.537Z,0.82
2017-11-10T22:42:45.002Z,0.85
2017-11-10T22:45:12.570Z,1.10
2017-11-10T22:47:40.025Z,1.62
2017-11-10T22:50:07.477Z,1.40
2017-11-10T22:52:34.941Z,1.50
2017-11-10T22:55:02.406Z,1.58
2017-11-10T22:57:29.959Z,1.70
2017-11-10T22:59:58.938Z,1.00
2017-11-10T23:02:26.395Z,1.10
2017-11-10T23:04:53.847Z,1.50
2017-11-10T23:07:21.313Z,0.90
2017-11-10T23:09:48.830Z,1.85
2017-11-10T23:12:16.293Z,1.17
2017-11-10T23:14:43.748Z,1.37
2017-11-10T23:17:11.214Z,1.20
2017-11-10T23:19:38.681Z,1.80
2017-11-10T23:22:06.133Z,1.42
2017-11-10T23:24:33.597Z,1.30
2017-11-10T23:27:01.054Z,1.75
2017-11-10T23:29:28.502Z,1.73
2017-11-10T23:31:55.966Z,2.22
2017-11-10T23:34:23.421Z,1.30
2017-11-10T23:36:50.893Z,2.00
2017-11-10T23:39:18.341Z,1.50
2017-11-10T23:41:45.796Z,2.00
2017-11-10T23:44:13.361Z,1.73
2017-11-10T23:46:40.814Z,1.95
2017-11-10T23:49:08.385Z,1.55
2017-11-10T23:51:35.842Z,2.30
2017-11-10T23:54:03.299Z,1.62
2017-11-10T23:56:30.759Z,1.92
2017-11-10T23:58:58.226Z,1.27
